PDT,Max TemperatureF,Mean TemperatureF,Min TemperatureF,Max Dew PointF,MeanDew PointF,Min DewpointF,Max Humidity, Mean Humidity, Min Humidity, Max Sea Level PressureIn, Mean Sea Level PressureIn, Min Sea Level PressureIn, Max VisibilityMiles, Mean VisibilityMiles, Min VisibilityMiles, Max Wind SpeedMPH, Mean Wind SpeedMPH, Max Gust SpeedMPH,PrecipitationIn, CloudCover, Events, WindDirDegrees
2013-7-1,74,70,67,67,65,64,89,83,76,29.87,29.85,29.82,7,5,2,17,9,23,0.00,5,,170
2013-7-2,73,68,63,66,63,61,100,85,73,30.00,29.94,29.89,5,3,0,15,4,,0.00,7,Fog,217
2013-7-3,69,66,62,63,62,61,94,88,78,29.94,29.86,29.82,6,4,0,9,5,,0.00,7,Fog,247
2013-7-4,70,70,70,61,61,61,74,73,72,29.81,29.78,29.76,7,6,5,15,4,22,0.00,7,,200
2013-7-5,72,69,66,63,62,60,83,77,70,29.86,29.81,29.78,7,6,6,13,4,,0.00,7,,224
2013-7-6,71,70,69,63,62,62,79,76,73,29.88,29.84,29.78,7,7,7,12,4,,0.00,8,,238
2013-7-7,70,68,67,61,61,60,76,74,73,29.84,29.82,29.81,7,7,7,15,4,,0.00,5,Rain,283
2013-7-8,72,67,62,63,60,58,89,79,71,29.94,29.91,29.88,7,7,5,14,4,,0.00,3,,301
2013-7-9,71,66,61,61,60,57,91,80,69,29.99,29.96,29.91,7,6,0,13,4,,0.00,3,,290
2013-7-10,73,68,63,63,61,58,89,80,70,29.97,29.94,29.91,7,6,6,12,3,,0.00,5,,265
2013-7-11,71,68,64,66,63,60,89,84,77,29.96,29.93,29.89,7,6,5,12,6,,0.00,5,Rain,202
2013-7-12,69,66,62,63,62,60,94,86,77,29.94,29.92,29.88,6,3,1,21,3,63,0.00,7,,277
2013-7-13,67,64,62,61,60,58,88,82,76,29.96,29.92,29.86,5,4,4,13,8,18,0.00,6,,219
2013-7-14,72,69,66,63,60,58,81,73,68,29.94,29.89,29.81,7,6,5,12,5,,0.00,4,,251
2013-7-15,74,68,60,59,57,56,85,73,57,29.88,29.85,29.63,7,7,7,16,5,21,0.00,0,,284
2013-7-16,70,64,58,59,57,52,87,76,62,29.96,29.94,29.88,7,6,5,15,6,18,0.00,3,,315
2013-7-17,70,64,58,61,58,53,87,75,64,30.04,30.00,29.97,7,7,7,15,5,,0.00,1,,300
2013-7-18,69,64,59,60,58,55,88,80,69,29.99,29.95,29.87,7,6,3,14,4,25,0.00,4,,276
2013-7-19,69,64,60,60,58,53,86,78,69,29.92,29.88,29.82,7,6,5,13,4,,0.00,2,,286
2013-7-20,69,66,64,62,61,60,88,80,75,29.88,29.85,29.78,4,4,4,12,4,,0.00,6,,245
2013-7-21,70,68,65,63,62,60,90,86,71,29.88,29.87,29.81,5,2,1,12,5,,0.00,7,,215
2013-7-22,72,68,64,64,61,60,88,81,69,29.99,29.96,29.92,7,6,3,12,4,,0.00,6,,234
2013-7-23,72,67,62,63,60,58,88,79,68,30.04,29.99,29.96,7,6,4,12,6,,0.00,5,,274
2013-7-24,66,64,61,62,58,56,89,82,76,29.99,29.95,29.90,7,6,4,14,6,,0.00,7,,288
2013-7-25,66,63,60,61,59,57,89,84,77,30.00,29.98,29.94,7,6,4,15,4,,0.00,7,,264
2013-7-26,72,66,61,62,59,57,89,83,70,30.10,30.04,30.00,6,6,4,14,4,,0.00,6,Rain,290
2013-7-27,68,64,61,60,58,56,83,80,72,30.01,29.97,29.89,7,7,3,13,5,,0.00,6,,281
2013-7-28,65,62,59,60,59,58,100,85,79,29.94,29.92,29.89,4,4,3,9,2,,0.00,8,,239
2013-7-29,71,66,61,62,58,56,92,77,64,30.02,30.00,29.94,7,6,2,12,5,18,0.00,5,,255
2013-7-30,70,66,61,58,57,54,84,75,64,30.14,30.09,29.99,7,6,4,12,3,,0.00,4,,257
2013-7-31,68,64,60,58,56,55,84,78,67,30.12,30.06,30.01,7,6,4,12,2,,0.00,7,,260